Aérodrome :
LOGIN :

S'inscrire | Disclaimer

   EN    FR    IT 

 










Légende :    VFR   VFR Marginal   IFR   IFR Intensif   IFR Très Intensif
Visi : 
Plafond : 
>= 8 km
>= 3000ft
5 à 8 km
1000 à 3000 ft
1500m à 5 km
500 à 1000 ft
800 à 1500m
200 à 500 ft
< 800m
< 200 ft
Symboles :   Orages  Brouillard  Fortes neiges  Fortes précipitations  Vent > 20 kt
SIGMETs :   Divers  Orages  Givrage  Turbulence  Onde Orograph.  Cendres Volcan.






- Altitude de l'aérodrome : 102 ft
- Code IATA : CNG


LFBG - Cognac

DERNIER METAR :
  • 021730Z AUTO 26009KT 9999 FEW040 SCT046 BKN064 22/12 Q1017

METARs EXPIRÉS :
  • 021700Z AUTO 26009KT 9999 SCT042 BKN052 OVC066 22/13 Q1017
  • 021630Z AUTO 24007KT 9999 SCT039 BKN048 OVC068 22/13 Q1017
  • 021600Z AUTO 20005KT 170V230 9999 FEW031 OVC066 22/15 Q1017
  • 021530Z AUTO VRB01KT 9999 FEW031 OVC058 21/15 Q1017
  • 021500Z AUTO 27006KT 220V290 CAVOK 20/15 Q1017 TEMPO 4000 -SHRA BKN040TCU

TAF TAF LFBG
Valide du 02 à 15h jusqu'au 03 à 15h UTC


021400Z 0215/0315 24010KT 9999 SCT040 BKN060
TEMPO 0215/0216 4000 -SHRA BKN040TCU
BECMG 0302/0304 BKN020
PROB40
TEMPO 0308/0312 4000 -RA BKN014



MET'MAP, la Météo Aéronautique d'un coup d'oeil ! - Copyright ORBIFLY Décembre 2007 - Disclaimer

ORBIFLY MET'MAP TEAM :

Programmation & Développement : Alexandra Zaïnal
Sur une idée originale de : Baudouin d'Aumeries
Assistance à la programmation : Marc-Olivier Méhu
Soutien technique & logistique : Manuel Goepfert

Contact : metmap@orbifly.com




SOURCES & CREDITS :

   NOAA